Time;durP1;ratioP1;P1;durP2;ratioP2;P2;SDS_P1;SDS_P2;PMS_P1;PMS_P2;Temp;Humidity;BMP_temperature;BMP_pressure;BME280_temperature;BME280_humidity;BME280_pressure;Samples;Min_cycle;Max_cycle;Signal;HPM_P1;HPM_P2
2022/08/28 00:02:22;;;;;;;10.50;2.78;;;16.80;99.90;;;;;;4974720;28;20109;-85
2022/08/28 00:05:10;;;;;;;11.43;2.83;;;16.80;99.90;;;;;;4975003;28;20046;-87
2022/08/28 00:07:57;;;;;;;15.30;2.72;;;16.70;99.90;;;;;;4975458;28;20054;-81
2022/08/28 00:10:44;;;;;;;6.43;2.25;;;16.70;99.90;;;;;;4973001;28;20058;-83
2022/08/28 00:13:31;;;;;;;10.13;2.63;;;16.70;99.90;;;;;;4973037;28;20090;-84
2022/08/28 00:16:22;;;;;;;11.45;2.40;;;16.70;99.90;;;;;;4974675;28;20376;-85
2022/08/28 00:19:09;;;;;;;10.55;2.25;;;16.70;99.90;;;;;;4974239;28;20053;-80
2022/08/28 00:21:55;;;;;;;12.98;2.75;;;16.70;99.90;;;;;;4974350;28;20725;-83
2022/08/28 00:24:43;;;;;;;19.33;3.78;;;16.70;99.90;;;;;;4974030;28;20522;-82
2022/08/28 00:30:41;;;;;;;13.43;2.85;;;16.70;99.90;;;;;;4974532;28;20046;-86
2022/08/28 00:33:31;;;;;;;12.73;2.65;;;16.70;99.90;;;;;;4974369;28;20507;-83
2022/08/28 00:36:18;;;;;;;19.48;2.13;;;16.70;99.90;;;;;;4972901;28;20125;-82
2022/08/28 00:39:06;;;;;;;13.80;2.90;;;16.70;99.90;;;;;;4975044;28;20513;-80
2022/08/28 00:41:52;;;;;;;8.95;1.73;;;16.60;99.90;;;;;;4990347;28;20490;-86
2022/08/28 00:44:39;;;;;;;15.02;2.90;;;16.60;99.90;;;;;;4979834;28;20078;-84
2022/08/28 00:47:25;;;;;;;7.40;2.05;;;16.60;99.90;;;;;;4959691;28;20122;-82
2022/08/28 00:50:18;;;;;;;10.05;1.90;;;16.60;99.90;;;;;;4973840;28;20061;-82
2022/08/28 00:53:04;;;;;;;11.38;3.35;;;16.50;99.90;;;;;;4973762;28;20054;-81
2022/08/28 00:55:51;;;;;;;6.82;1.90;;;16.50;99.90;;;;;;4973415;28;20053;-83
2022/08/28 00:58:38;;;;;;;9.80;2.63;;;16.50;99.90;;;;;;4972970;28;20057;-81
2022/08/28 01:01:42;;;;;;;11.02;2.63;;;16.50;99.90;;;;;;4973009;28;20650;-82
2022/08/28 01:04:31;;;;;;;9.88;2.15;;;16.60;99.90;;;;;;4973164;28;20053;-86
2022/08/28 01:07:17;;;;;;;5.80;1.52;;;16.50;99.90;;;;;;4986730;28;20197;-89
2022/08/28 01:10:08;;;;;;;10.50;2.58;;;16.50;99.90;;;;;;4974437;28;20043;-83
2022/08/28 01:12:56;;;;;;;11.18;2.65;;;16.50;99.90;;;;;;4979179;28;20413;-82
2022/08/28 01:15:42;;;;;;;9.07;2.10;;;16.50;99.90;;;;;;4975717;28;20057;-88
2022/08/28 01:18:31;;;;;;;8.88;1.85;;;16.50;99.90;;;;;;4976277;28;20439;-88
2022/08/28 01:21:35;;;;;;;9.75;2.40;;;16.50;99.90;;;;;;4990384;28;20057;-80
2022/08/28 01:24:22;;;;;;;6.70;1.75;;;16.40;99.90;;;;;;4974461;28;20046;-84
2022/08/28 01:27:08;;;;;;;13.70;2.53;;;16.40;99.90;;;;;;4972953;28;20057;-82
2022/08/28 01:29:54;;;;;;;7.25;2.03;;;16.40;99.90;;;;;;4971306;28;20383;-81
2022/08/28 01:32:46;;;;;;;8.88;1.75;;;16.40;99.90;;;;;;4973941;28;20047;-84
2022/08/28 01:35:36;;;;;;;8.75;2.17;;;16.40;99.90;;;;;;4973783;28;20137;-80
2022/08/28 01:38:23;;;;;;;8.38;1.88;;;16.40;99.90;;;;;;4962561;28;20475;-80
2022/08/28 01:41:12;;;;;;;8.98;2.80;;;16.40;99.90;;;;;;4978171;28;20047;-83
2022/08/28 01:43:59;;;;;;;9.68;2.17;;;16.30;99.90;;;;;;4972601;28;20062;-81
2022/08/28 01:46:45;;;;;;;8.65;1.90;;;16.40;99.90;;;;;;4971927;28;20525;-81
2022/08/28 01:49:32;;;;;;;6.05;1.85;;;16.30;99.90;;;;;;4971000;28;20133;-82
2022/08/28 01:52:18;;;;;;;10.43;3.10;;;16.30;99.90;;;;;;4971948;28;20133;-84
2022/08/28 01:55:08;;;;;;;8.30;2.15;;;16.30;99.90;;;;;;4971033;28;20062;-83
2022/08/28 01:57:55;;;;;;;11.43;2.83;;;16.30;99.90;;;;;;4985285;28;20483;-88
2022/08/28 02:00:42;;;;;;;12.05;2.38;;;16.30;99.90;;;;;;4985986;28;20100;-85
2022/08/28 02:03:28;;;;;;;9.60;1.75;;;16.20;99.90;;;;;;4975518;28;20129;-83
2022/08/28 02:06:15;;;;;;;6.18;1.48;;;16.30;99.90;;;;;;4972605;28;20050;-85
2022/08/28 02:09:05;;;;;;;7.60;1.90;;;16.30;99.90;;;;;;4971999;28;20066;-80
2022/08/28 02:11:53;;;;;;;11.57;2.20;;;16.30;99.90;;;;;;4975269;28;20062;-88
2022/08/28 02:14:39;;;;;;;12.85;2.38;;;16.30;99.90;;;;;;4972677;28;20047;-81
2022/08/28 02:17:26;;;;;;;13.98;2.80;;;16.30;99.90;;;;;;4972491;28;20061;-84
2022/08/28 02:20:13;;;;;;;10.13;2.20;;;16.30;99.90;;;;;;4972368;28;20059;-82
2022/08/28 02:23:00;;;;;;;11.50;1.92;;;16.30;99.90;;;;;;4972451;28;20394;-81
2022/08/28 02:25:46;;;;;;;8.07;1.80;;;16.30;99.90;;;;;;4972624;28;20082;-80
2022/08/28 02:28:32;;;;;;;9.05;1.77;;;16.30;99.90;;;;;;4971186;28;20582;-81
2022/08/28 02:31:19;;;;;;;19.70;3.85;;;16.30;99.90;;;;;;4972724;28;20078;-80
2022/08/28 02:34:06;;;;;;;10.35;2.28;;;16.30;99.90;;;;;;4971729;28;20536;-83
2022/08/28 02:36:53;;;;;;;7.25;1.58;;;16.30;99.90;;;;;;4972271;28;20054;-81
2022/08/28 02:39:39;;;;;;;8.43;2.35;;;16.30;99.90;;;;;;4970843;28;20051;-83
2022/08/28 02:42:27;;;;;;;9.73;2.22;;;16.30;99.90;;;;;;4972249;28;20054;-80
2022/08/28 02:45:14;;;;;;;9.55;2.88;;;16.30;99.90;;;;;;4974643;28;20445;-82
2022/08/28 02:48:00;;;;;;;9.30;2.50;;;16.40;99.90;;;;;;4972779;28;20070;-83
2022/08/28 02:50:46;;;;;;;7.75;2.20;;;16.40;99.90;;;;;;4972210;28;20055;-81
2022/08/28 02:53:33;;;;;;;7.63;1.80;;;16.30;99.90;;;;;;4987945;28;20053;-82
2022/08/28 02:56:20;;;;;;;9.75;2.25;;;16.30;99.90;;;;;;4976056;28;20494;-82
2022/08/28 02:59:06;;;;;;;9.85;1.80;;;16.30;99.90;;;;;;4976621;28;20073;-80
2022/08/28 03:01:52;;;;;;;10.05;2.25;;;16.30;99.90;;;;;;4978822;28;20043;-83
2022/08/28 03:04:39;;;;;;;11.60;2.78;;;16.30;99.90;;;;;;4978834;28;20454;-81
2022/08/28 03:07:26;;;;;;;8.68;1.85;;;16.30;99.90;;;;;;4985179;28;20074;-83
2022/08/28 03:10:14;;;;;;;9.13;1.65;;;16.20;99.90;;;;;;4987034;28;20119;-80
2022/08/28 03:13:00;;;;;;;12.30;2.30;;;16.30;99.90;;;;;;4981321;28;20046;-80
2022/08/28 03:15:46;;;;;;;7.70;2.08;;;16.20;99.90;;;;;;4975815;28;20051;-86
2022/08/28 03:18:33;;;;;;;10.45;2.03;;;16.20;99.90;;;;;;4979653;28;20098;-84
2022/08/28 03:21:19;;;;;;;7.32;2.33;;;16.30;99.90;;;;;;4979438;28;20083;-86
2022/08/28 03:24:05;;;;;;;10.32;2.33;;;16.30;99.90;;;;;;4988678;28;20047;-83
2022/08/28 03:26:51;;;;;;;8.98;1.77;;;16.20;99.90;;;;;;4976126;28;20050;-85
2022/08/28 03:29:38;;;;;;;10.52;1.88;;;16.20;99.90;;;;;;4977126;28;20046;-85
2022/08/28 03:32:25;;;;;;;9.52;1.73;;;16.20;99.90;;;;;;4980058;28;20047;-86
2022/08/28 03:35:11;;;;;;;10.82;2.05;;;16.20;99.90;;;;;;4976018;28;20141;-81
2022/08/28 03:37:58;;;;;;;9.50;2.22;;;16.20;99.90;;;;;;4975693;28;20498;-84
2022/08/28 03:40:45;;;;;;;7.28;2.05;;;16.10;99.90;;;;;;4975458;28;20051;-82
2022/08/28 03:43:32;;;;;;;9.88;2.05;;;16.10;99.90;;;;;;4976496;28;20131;-82
2022/08/28 03:46:22;;;;;;;9.55;1.70;;;16.20;99.90;;;;;;4975000;28;20394;-80
2022/08/28 03:49:08;;;;;;;7.07;2.13;;;16.20;99.90;;;;;;4974093;28;20055;-81
2022/08/28 03:51:54;;;;;;;8.65;1.73;;;16.10;99.90;;;;;;4959589;28;20062;-80
2022/08/28 03:54:40;;;;;;;8.63;1.95;;;16.10;99.90;;;;;;4974487;28;20051;-82
2022/08/28 03:57:27;;;;;;;9.15;2.05;;;16.10;99.90;;;;;;4974151;28;20054;-79
2022/08/28 04:00:15;;;;;;;10.07;2.53;;;16.10;99.90;;;;;;4973211;28;20043;-80
2022/08/28 04:03:01;;;;;;;7.25;1.90;;;16.00;99.90;;;;;;4977185;28;20442;-79
2022/08/28 04:05:47;;;;;;;8.85;2.28;;;16.10;99.90;;;;;;4977330;28;20065;-81
2022/08/28 04:08:34;;;;;;;12.73;2.65;;;16.10;99.90;;;;;;4979458;28;20047;-82
2022/08/28 04:11:20;;;;;;;6.95;1.55;;;16.10;99.90;;;;;;4975094;28;20051;-85
2022/08/28 04:14:07;;;;;;;9.90;2.05;;;16.00;99.90;;;;;;4974201;28;20051;-85
2022/08/28 04:16:53;;;;;;;9.38;1.80;;;16.10;99.90;;;;;;4973417;28;20097;-84
2022/08/28 04:19:39;;;;;;;7.18;2.72;;;16.10;99.90;;;;;;4973540;28;20125;-82
2022/08/28 04:22:25;;;;;;;11.43;2.08;;;16.10;99.90;;;;;;4973550;28;20050;-86
2022/08/28 04:25:11;;;;;;;9.05;2.22;;;16.10;99.90;;;;;;4986081;28;20057;-80
2022/08/28 04:27:57;;;;;;;8.07;1.73;;;16.20;99.90;;;;;;4972987;28;20113;-80
2022/08/28 04:30:44;;;;;;;10.43;1.40;;;16.20;99.90;;;;;;4986815;28;20051;-83
2022/08/28 04:33:30;;;;;;;7.90;1.80;;;16.20;99.90;;;;;;4973551;28;20051;-87
2022/08/28 04:36:17;;;;;;;12.13;2.13;;;16.20;99.90;;;;;;4973695;28;20432;-85
2022/08/28 04:39:07;;;;;;;15.63;2.53;;;16.30;99.90;;;;;;4975297;28;20073;-79
2022/08/28 04:41:54;;;;;;;10.05;2.47;;;16.30;99.90;;;;;;4973885;28;20058;-83
2022/08/28 04:44:41;;;;;;;10.13;2.38;;;16.30;99.90;;;;;;4973783;28;20051;-80
2022/08/28 04:47:27;;;;;;;8.02;1.35;;;16.30;99.90;;;;;;4973506;28;20071;-82
2022/08/28 04:50:16;;;;;;;9.00;1.73;;;16.30;99.90;;;;;;4946336;28;20088;-81
2022/08/28 04:53:02;;;;;;;9.57;1.83;;;16.30;99.90;;;;;;4972428;28;20039;-86
2022/08/28 04:55:51;;;;;;;12.15;1.98;;;16.30;99.90;;;;;;4972841;28;20093;-86
2022/08/28 04:58:38;;;;;;;10.70;1.60;;;16.30;99.90;;;;;;4987760;28;20447;-82
2022/08/28 05:01:25;;;;;;;9.27;1.92;;;16.40;99.90;;;;;;4974504;28;20047;-83
2022/08/28 05:04:12;;;;;;;10.25;2.00;;;16.40;99.90;;;;;;4973917;28;20098;-80
2022/08/28 05:06:58;;;;;;;6.88;1.65;;;16.40;99.90;;;;;;4975880;28;20050;-83
2022/08/28 05:09:45;;;;;;;8.00;2.22;;;16.30;99.90;;;;;;4976201;28;20105;-82
2022/08/28 05:12:31;;;;;;;10.95;1.80;;;16.30;99.90;;;;;;4977068;28;20453;-82
2022/08/28 05:15:17;;;;;;;9.32;1.73;;;16.30;99.90;;;;;;4973197;28;20046;-80
2022/08/28 05:18:03;;;;;;;11.13;1.95;;;16.30;99.90;;;;;;4975022;28;20051;-80
2022/08/28 05:20:49;;;;;;;10.25;1.95;;;16.40;99.90;;;;;;4973000;28;20050;-81
2022/08/28 05:23:36;;;;;;;12.75;2.17;;;16.40;99.90;;;;;;4973083;28;20097;-80
2022/08/28 05:26:22;;;;;;;13.18;2.05;;;16.50;99.90;;;;;;4972997;28;20046;-80
2022/08/28 05:29:09;;;;;;;8.57;1.80;;;16.60;99.90;;;;;;4973012;28;20074;-81
2022/08/28 05:31:56;;;;;;;10.77;1.98;;;16.70;99.90;;;;;;4958242;28;20738;-84
2022/08/28 05:34:42;;;;;;;6.60;2.13;;;16.70;99.90;;;;;;4972725;28;20053;-83
2022/08/28 05:37:28;;;;;;;9.38;2.10;;;16.70;99.90;;;;;;4971641;28;20529;-81
2022/08/28 05:40:15;;;;;;;8.50;1.98;;;16.70;99.90;;;;;;4970953;28;20093;-81
2022/08/28 05:43:01;;;;;;;6.43;2.08;;;16.80;99.90;;;;;;4971533;28;20054;-83
2022/08/28 05:45:59;;;;;;;6.22;1.42;;;16.80;99.90;;;;;;4973408;28;20094;-89
2022/08/28 05:48:48;;;;;;;9.52;1.90;;;16.90;99.90;;;;;;4991161;28;20047;-87
2022/08/28 05:51:34;;;;;;;7.30;2.03;;;17.00;99.90;;;;;;4973996;28;20047;-86
2022/08/28 05:54:21;;;;;;;9.70;2.22;;;17.10;99.90;;;;;;4973802;28;20097;-85
2022/08/28 05:57:08;;;;;;;11.35;2.03;;;17.20;99.90;;;;;;4985942;28;20065;-82
2022/08/28 05:59:54;;;;;;;11.48;1.85;;;17.20;99.90;;;;;;4972142;28;20415;-89
2022/08/28 06:02:41;;;;;;;9.88;1.90;;;17.20;99.90;;;;;;4971950;28;20046;-82
2022/08/28 06:05:28;;;;;;;9.25;2.17;;;17.20;99.90;;;;;;4972672;28;20395;-85
2022/08/28 06:08:14;;;;;;;9.38;1.67;;;17.20;99.90;;;;;;4973617;28;20047;-83
2022/08/28 06:11:01;;;;;;;12.45;1.88;;;17.40;99.90;;;;;;4971539;28;20094;-85
2022/08/28 06:13:47;;;;;;;7.88;1.60;;;17.50;99.90;;;;;;4985738;28;20062;-87
2022/08/28 06:16:35;;;;;;;8.55;1.65;;;17.70;99.90;;;;;;4971713;28;20046;-85
2022/08/28 06:19:23;;;;;;;6.50;1.45;;;17.80;99.90;;;;;;4971904;28;20055;-86
2022/08/28 06:22:13;;;;;;;8.02;1.42;;;17.90;99.90;;;;;;4971894;28;20376;-81
2022/08/28 06:24:59;;;;;;;8.73;1.40;;;18.10;99.90;;;;;;4972794;28;20055;-87
2022/08/28 06:27:46;;;;;;;8.65;1.80;;;18.30;99.90;;;;;;4973634;28;20786;-83
2022/08/28 06:30:36;;;;;;;9.73;1.98;;;18.50;99.90;;;;;;4986827;28;20408;-81
2022/08/28 06:33:23;;;;;;;4.03;1.50;;;18.60;99.90;;;;;;4971709;28;20090;-81
2022/08/28 06:36:10;;;;;;;9.60;1.83;;;18.80;99.90;;;;;;4973883;28;20047;-83
2022/08/28 06:38:58;;;;;;;9.73;2.03;;;18.90;99.90;;;;;;4970415;28;20054;-86
2022/08/28 06:41:45;;;;;;;9.07;1.63;;;18.90;99.90;;;;;;4973539;28;20081;-83
2022/08/28 06:44:31;;;;;;;7.97;1.60;;;18.80;99.90;;;;;;4984985;28;20057;-86
2022/08/28 06:47:17;;;;;;;5.60;1.85;;;18.70;99.60;;;;;;4972813;28;20055;-80
2022/08/28 06:50:04;;;;;;;11.70;2.40;;;18.70;99.80;;;;;;4973153;28;20050;-85
2022/08/28 06:52:50;;;;;;;6.13;1.83;;;18.80;99.60;;;;;;4972420;28;20054;-82
2022/08/28 06:55:37;;;;;;;7.72;1.52;;;19.00;99.10;;;;;;4972261;28;20051;-86
2022/08/28 06:58:23;;;;;;;4.70;1.30;;;19.00;99.00;;;;;;4972621;28;20043;-80
2022/08/28 07:01:13;;;;;;;8.82;1.45;;;19.00;99.20;;;;;;4972294;28;20109;-83
2022/08/28 07:04:03;;;;;;;5.60;1.63;;;19.10;99.30;;;;;;4985689;28;20563;-81
2022/08/28 07:06:49;;;;;;;7.55;1.85;;;19.10;99.00;;;;;;4984806;28;20414;-82
2022/08/28 07:09:36;;;;;;;5.50;1.58;;;19.30;98.70;;;;;;4972044;28;20086;-80
2022/08/28 07:12:22;;;;;;;15.60;2.13;;;19.50;98.60;;;;;;4971959;28;20043;-79
2022/08/28 07:15:09;;;;;;;8.93;1.88;;;19.40;98.40;;;;;;4971175;28;20122;-82
2022/08/28 07:17:55;;;;;;;9.32;1.67;;;19.30;98.80;;;;;;4970528;28;20497;-84
2022/08/28 07:20:42;;;;;;;9.80;2.15;;;19.20;98.70;;;;;;4972842;28;20407;-80
2022/08/28 07:23:30;;;;;;;7.28;1.63;;;19.20;98.60;;;;;;4972548;28;20082;-82
2022/08/28 07:26:22;;;;;;;8.38;2.22;;;19.30;98.50;;;;;;4971693;28;20495;-81
2022/08/28 07:29:08;;;;;;;9.23;1.90;;;19.40;98.40;;;;;;4972418;28;20057;-80
2022/08/28 07:31:57;;;;;;;15.77;2.70;;;19.60;98.10;;;;;;4972087;28;20046;-80
2022/08/28 07:34:44;;;;;;;8.50;1.92;;;19.80;98.40;;;;;;4971741;28;20063;-80
2022/08/28 07:37:30;;;;;;;9.82;1.80;;;19.80;98.00;;;;;;4970379;28;20089;-83
2022/08/28 07:40:17;;;;;;;9.95;2.03;;;19.80;98.20;;;;;;4975608;28;20486;-81
2022/08/28 07:46:25;;;;;;;8.13;1.90;;;20.10;98.10;;;;;;4900509;29;20516;-81
2022/08/28 07:49:15;;;;;;;9.02;2.60;;;20.20;97.20;;;;;;4975452;28;20061;-81
2022/08/28 07:52:03;;;;;;;7.82;1.63;;;20.00;97.00;;;;;;4975852;28;20043;-80
2022/08/28 07:54:49;;;;;;;9.07;1.67;;;19.80;97.20;;;;;;4975302;28;20055;-84
2022/08/28 07:57:35;;;;;;;8.20;1.63;;;20.10;97.60;;;;;;4976530;28;20521;-81
2022/08/28 08:00:21;;;;;;;6.93;2.03;;;20.20;97.10;;;;;;4976031;28;20047;-83
2022/08/28 08:03:08;;;;;;;9.90;1.70;;;20.50;96.90;;;;;;4988978;28;20045;-82
2022/08/28 08:05:59;;;;;;;6.13;1.65;;;20.60;96.60;;;;;;4978629;28;20125;-82
2022/08/28 08:08:46;;;;;;;7.85;2.13;;;20.60;96.20;;;;;;4980063;28;20053;-82
2022/08/28 08:11:32;;;;;;;8.23;1.80;;;20.60;96.20;;;;;;4963396;28;20051;-88
2022/08/28 08:14:22;;;;;;;6.50;1.60;;;20.80;96.00;;;;;;4975157;28;20050;-89
2022/08/28 08:17:09;;;;;;;6.55;1.83;;;21.00;95.60;;;;;;4974984;28;20110;-88
2022/08/28 08:19:55;;;;;;;6.25;2.13;;;21.30;95.40;;;;;;4975697;28;20101;-86
2022/08/28 08:22:41;;;;;;;12.20;1.88;;;21.40;95.00;;;;;;4988384;28;20047;-86
2022/08/28 08:25:27;;;;;;;4.78;1.40;;;21.20;95.10;;;;;;4974495;28;20050;-80
2022/08/28 08:28:14;;;;;;;10.95;1.80;;;21.00;95.30;;;;;;4974656;28;20078;-85
2022/08/28 08:31:14;;;;;;;7.55;1.70;;;21.00;95.40;;;;;;4975068;28;20043;-82
2022/08/28 08:34:02;;;;;;;4.60;1.30;;;21.10;95.00;;;;;;4975781;28;20053;-81
2022/08/28 08:36:49;;;;;;;10.95;2.00;;;21.20;95.40;;;;;;4974250;28;20043;-83
2022/08/28 08:39:36;;;;;;;8.95;2.35;;;21.20;95.20;;;;;;4976142;28;20058;-84
2022/08/28 08:42:22;;;;;;;6.80;1.98;;;21.50;95.30;;;;;;4978788;28;20054;-87
2022/08/28 08:45:12;;;;;;;11.32;2.22;;;21.70;95.30;;;;;;4975380;28;20454;-82
2022/08/28 08:48:00;;;;;;;8.68;1.52;;;21.80;94.50;;;;;;4975337;28;20042;-81
2022/08/28 08:50:47;;;;;;;5.38;2.33;;;21.50;94.40;;;;;;4973613;28;20087;-81
2022/08/28 08:53:41;;;;;;;9.00;2.28;;;21.30;94.60;;;;;;4973771;28;20189;-82
2022/08/28 08:56:28;;;;;;;7.03;1.40;;;21.20;94.60;;;;;;4978881;28;20145;-82
2022/08/28 08:59:18;;;;;;;9.63;2.28;;;21.20;94.70;;;;;;4992809;28;20073;-82
2022/08/28 09:02:13;;;;;;;7.82;2.03;;;21.50;94.20;;;;;;4976162;28;20524;-78
2022/08/28 09:05:04;;;;;;;11.25;1.95;;;21.70;93.70;;;;;;4974303;28;20394;-83
2022/08/28 09:08:01;;;;;;;5.88;1.70;;;22.00;93.40;;;;;;4973053;28;20101;-84
2022/08/28 09:10:59;;;;;;;5.28;1.45;;;22.20;93.30;;;;;;4972850;28;20050;-83
2022/08/28 09:13:58;;;;;;;6.70;1.60;;;22.30;92.70;;;;;;4973546;28;20047;-81
2022/08/28 09:16:44;;;;;;;11.95;1.95;;;22.30;93.10;;;;;;4974592;28;20054;-82
2022/08/28 09:19:31;;;;;;;7.00;1.67;;;22.60;93.30;;;;;;4974646;28;20129;-84
2022/08/28 09:22:18;;;;;;;11.13;2.03;;;22.90;93.40;;;;;;4959922;28;20050;-81
2022/08/28 09:25:04;;;;;;;6.60;1.85;;;22.60;93.10;;;;;;4987043;28;20294;-88
2022/08/28 09:27:52;;;;;;;6.32;2.20;;;22.20;92.90;;;;;;4960893;28;20066;-83
2022/08/28 09:30:41;;;;;;;8.63;2.15;;;22.00;92.80;;;;;;4977295;28;20452;-84
2022/08/28 09:33:43;;;;;;;5.85;1.50;;;22.40;93.50;;;;;;4973731;28;20082;-81
2022/08/28 09:36:30;;;;;;;7.03;2.28;;;22.50;93.20;;;;;;4973349;28;20130;-83
2022/08/28 09:39:32;;;;;;;9.57;1.77;;;22.70;92.70;;;;;;4971108;28;20066;-85
2022/08/28 09:45:28;;;;;;;8.18;1.88;;;22.30;92.30;;;;;;4971466;28;20058;-82
2022/08/28 09:48:23;;;;;;;6.60;1.75;;;22.20;92.80;;;;;;4960118;28;20050;-79
2022/08/28 09:51:22;;;;;;;6.88;1.50;;;22.70;92.40;;;;;;4986225;28;20046;-81
2022/08/28 09:54:24;;;;;;;5.18;1.73;;;22.60;92.00;;;;;;4959581;28;20053;-85
2022/08/28 09:57:10;;;;;;;7.72;2.13;;;22.70;92.00;;;;;;4974385;28;20047;-80
2022/08/28 09:59:56;;;;;;;8.48;1.95;;;23.00;92.00;;;;;;4972916;28;20051;-83
2022/08/28 10:03:06;;;;;;;6.65;1.27;;;23.10;91.80;;;;;;4973538;28;20126;-79
2022/08/28 10:06:02;;;;;;;8.13;1.75;;;22.80;91.90;;;;;;4971420;28;20182;-81
2022/08/28 10:09:02;;;;;;;7.57;1.80;;;22.20;92.30;;;;;;4972607;28;20047;-82
2022/08/28 10:11:57;;;;;;;8.48;2.20;;;22.20;93.10;;;;;;4971319;28;20054;-79
2022/08/28 10:14:52;;;;;;;8.07;1.75;;;22.50;93.10;;;;;;4971278;28;20142;-81
2022/08/28 10:17:50;;;;;;;6.90;1.90;;;22.50;93.10;;;;;;4974364;28;20047;-81
2022/08/28 10:20:36;;;;;;;7.68;2.15;;;22.60;92.90;;;;;;4973002;28;20055;-85
2022/08/28 10:23:49;;;;;;;10.57;1.67;;;22.50;92.80;;;;;;4972956;28;20047;-83
2022/08/28 10:26:44;;;;;;;5.18;1.23;;;22.90;92.20;;;;;;4975557;28;20085;-83
2022/08/28 10:29:57;;;;;;;6.22;1.65;;;23.30;91.60;;;;;;4972017;28;20055;-82
2022/08/28 10:33:17;;;;;;;4.00;1.30;;;23.30;90.70;;;;;;4972111;28;20047;-83
2022/08/28 10:36:20;;;;;;;5.30;1.35;;;23.60;90.60;;;;;;4973535;28;20435;-85
2022/08/28 10:39:34;;;;;;;6.30;1.23;;;23.60;90.50;;;;;;4972746;28;20423;-88
2022/08/28 10:42:32;;;;;;;7.13;1.77;;;23.60;90.20;;;;;;4973164;28;20100;-87
2022/08/28 10:45:23;;;;;;;6.32;1.48;;;23.40;90.40;;;;;;4985607;28;20086;-81
2022/08/28 10:48:18;;;;;;;5.50;1.58;;;23.90;90.20;;;;;;4958686;28;20051;-82
2022/08/28 10:51:33;;;;;;;6.03;1.90;;;24.00;89.70;;;;;;4975404;28;20510;-83
2022/08/28 10:54:37;;;;;;;6.17;1.47;;;23.60;88.70;;;;;;4976658;28;20057;-82
2022/08/28 10:57:52;;;;;;;7.97;2.08;;;23.70;88.90;;;;;;4975997;28;20050;-80
2022/08/28 11:00:41;;;;;;;6.20;1.90;;;23.80;87.70;;;;;;4977132;28;20550;-82
2022/08/28 11:03:40;;;;;;;7.88;1.75;;;23.90;89.20;;;;;;4974670;28;20051;-81
2022/08/28 11:06:35;;;;;;;6.85;1.75;;;24.20;88.70;;;;;;4971039;28;20058;-81
2022/08/28 11:09:41;;;;;;;8.55;1.73;;;24.50;90.00;;;;;;4972877;28;20090;-82
2022/08/28 11:12:36;;;;;;;6.93;2.08;;;24.60;89.30;;;;;;4975089;28;20043;-81
2022/08/28 11:15:30;;;;;;;5.03;1.70;;;24.70;88.80;;;;;;4964347;28;20047;-82
2022/08/28 11:18:39;;;;;;;6.68;1.58;;;24.70;88.50;;;;;;4963875;28;20520;-88
2022/08/28 11:21:30;;;;;;;6.18;1.70;;;24.70;88.60;;;;;;4975388;28;20046;-87
2022/08/28 11:24:38;;;;;;;7.00;2.13;;;25.10;87.90;;;;;;4961292;28;20054;-82
2022/08/28 11:27:35;;;;;;;8.45;1.77;;;25.00;87.50;;;;;;4976555;28;20140;-83
2022/08/28 11:30:30;;;;;;;5.75;1.73;;;24.80;88.50;;;;;;4979714;28;20074;-89
2022/08/28 11:33:40;;;;;;;10.73;1.90;;;25.20;86.80;;;;;;4978763;28;20447;-83
2022/08/28 11:36:28;;;;;;;3.72;1.02;;;24.80;85.10;;;;;;4976279;28;20061;-85
2022/08/28 11:39:14;;;;;;;11.15;1.70;;;24.80;85.50;;;;;;4974287;28;20135;-87
2022/08/28 11:42:09;;;;;;;6.88;1.45;;;24.70;84.50;;;;;;4975742;28;20047;-83
2022/08/28 11:44:55;;;;;;;;;;;25.00;84.50;;;;;;4974563;28;20050;-79
2022/08/28 11:47:45;;;;;;;7.68;1.90;;;25.30;83.70;;;;;;4974536;28;19930;-79
2022/08/28 11:50:50;;;;;;;6.07;1.17;;;25.80;85.00;;;;;;4973956;28;20057;-81
2022/08/28 11:53:53;;;;;;;5.18;1.77;;;25.90;82.20;;;;;;4973745;28;20053;-81
2022/08/28 11:56:50;;;;;;;7.30;1.20;;;26.10;82.40;;;;;;4975312;28;20097;-81
2022/08/28 12:00:00;;;;;;;5.00;1.20;;;26.40;80.60;;;;;;4974914;28;20051;-86
2022/08/28 12:02:57;;;;;;;8.05;1.52;;;26.30;81.30;;;;;;4974232;28;20051;-79
2022/08/28 12:05:46;;;;;;;7.95;1.10;;;26.10;82.30;;;;;;4974794;28;20055;-81
2022/08/28 12:08:47;;;;;;;5.97;1.52;;;25.90;82.00;;;;;;4973996;28;20057;-81
2022/08/28 12:11:39;;;;;;;6.45;1.52;;;25.60;83.40;;;;;;4973361;28;20047;-79
2022/08/28 12:14:28;;;;;;;5.38;1.35;;;25.30;84.00;;;;;;4974059;28;20429;-81
2022/08/28 12:17:20;;;;;;;5.38;1.30;;;25.00;84.80;;;;;;4976229;28;20050;-80
2022/08/28 12:20:20;;;;;;;4.95;1.50;;;25.00;84.50;;;;;;4975655;28;20131;-81
2022/08/28 12:23:24;;;;;;;6.43;1.48;;;24.70;84.70;;;;;;4977968;28;20051;-80
2022/08/28 12:26:23;;;;;;;6.77;1.20;;;25.00;85.30;;;;;;4975148;28;20090;-82
2022/08/28 12:29:21;;;;;;;4.85;1.42;;;24.80;85.40;;;;;;4976720;28;20039;-87
2022/08/28 12:32:31;;;;;;;7.80;2.13;;;24.60;84.90;;;;;;4976771;28;20388;-85
2022/08/28 12:35:28;;;;;;;7.72;1.38;;;25.20;85.00;;;;;;4975539;28;20047;-81
2022/08/28 12:38:20;;;;;;;7.70;1.20;;;25.10;85.30;;;;;;4974811;28;20054;-89
2022/08/28 12:41:15;;;;;;;6.78;1.50;;;26.00;84.20;;;;;;4974045;28;20118;-84
2022/08/28 12:44:03;;;;;;;4.50;1.17;;;26.50;83.40;;;;;;4975290;28;20058;-90
2022/08/28 12:46:50;;;;;;;7.28;1.40;;;26.40;81.60;;;;;;4973845;28;20051;-91
2022/08/28 12:49:37;;;;;;;5.55;1.20;;;25.90;81.70;;;;;;4973130;28;20059;-80
2022/08/28 12:52:25;;;;;;;4.85;1.35;;;25.30;83.00;;;;;;4974945;28;20051;-83
2022/08/28 12:55:12;;;;;;;5.78;1.25;;;25.10;84.30;;;;;;4977481;28;20054;-84
2022/08/28 12:57:58;;;;;;;6.10;1.23;;;25.30;84.10;;;;;;4975074;28;20047;-83
2022/08/28 13:00:59;;;;;;;7.05;1.33;;;25.60;84.40;;;;;;4974900;28;20045;-87
2022/08/28 13:03:52;;;;;;;11.32;1.48;;;25.20;84.20;;;;;;4976118;28;20145;-85
2022/08/28 13:06:38;;;;;;;8.60;2.00;;;25.00;85.10;;;;;;4974564;28;20047;-85
2022/08/28 13:09:27;;;;;;;5.55;1.40;;;24.90;86.20;;;;;;4973692;28;20054;-87
2022/08/28 13:12:34;;;;;;;4.65;1.20;;;25.20;87.50;;;;;;4959785;28;20502;-86
2022/08/28 13:15:56;;;;;;;7.80;1.73;;;26.40;84.80;;;;;;4974714;28;20043;-86
2022/08/28 13:19:09;;;;;;;4.53;1.50;;;27.30;84.10;;;;;;4962228;28;20080;-83
2022/08/28 13:22:01;;;;;;;4.95;1.00;;;27.60;82.30;;;;;;4976056;28;20467;-85
2022/08/28 13:24:48;;;;;;;7.05;1.73;;;27.50;81.20;;;;;;4977498;28;20046;-82
2022/08/28 13:27:34;;;;;;;8.35;1.45;;;28.30;79.50;;;;;;4962377;28;20436;-83
2022/08/28 13:30:33;;;;;;;6.28;1.75;;;28.00;79.20;;;;;;4977565;28;20051;-83
2022/08/28 13:33:21;;;;;;;5.65;0.98;;;29.10;77.30;;;;;;4975586;28;20061;-82
2022/08/28 13:36:23;;;;;;;6.90;1.70;;;29.00;78.00;;;;;;4973925;28;20058;-85
2022/08/28 13:39:11;;;;;;;8.60;2.28;;;29.50;75.80;;;;;;4986554;28;20069;-89
2022/08/28 13:42:11;;;;;;;5.57;1.35;;;28.80;75.00;;;;;;4972921;28;20070;-81
2022/08/28 13:44:58;;;;;;;7.32;1.60;;;27.50;76.10;;;;;;4972443;28;20137;-82
2022/08/28 13:47:44;;;;;;;6.60;1.38;;;26.30;78.50;;;;;;4973300;28;20042;-81
2022/08/28 13:50:31;;;;;;;7.25;1.50;;;25.80;80.70;;;;;;4974507;28;20054;-87
2022/08/28 13:53:18;;;;;;;6.93;1.45;;;25.00;82.40;;;;;;4973144;28;20146;-80
2022/08/28 13:56:05;;;;;;;8.88;1.35;;;24.30;84.00;;;;;;4973546;28;20047;-82
2022/08/28 13:58:51;;;;;;;7.00;1.20;;;24.00;85.00;;;;;;4972780;28;20113;-82
2022/08/28 14:04:43;;;;;;;9.93;1.45;;;23.30;86.60;;;;;;4971394;28;20058;-84
2022/08/28 14:07:30;;;;;;;4.55;1.42;;;23.20;88.40;;;;;;4972956;28;20046;-89
2022/08/28 14:10:17;;;;;;;7.50;1.70;;;23.00;89.80;;;;;;4972523;28;20086;-86
2022/08/28 14:13:03;;;;;;;7.45;1.40;;;23.20;90.30;;;;;;4974567;28;20430;-81
2022/08/28 14:15:49;;;;;;;5.53;1.30;;;23.70;90.40;;;;;;4974272;28;20046;-81
2022/08/28 14:18:35;;;;;;;7.53;1.45;;;24.40;88.10;;;;;;4974763;28;20050;-83
2022/08/28 14:21:23;;;;;;;6.97;1.55;;;24.20;87.30;;;;;;4972831;28;20082;-86
2022/08/28 14:24:09;;;;;;;9.18;1.77;;;23.80;88.40;;;;;;4972495;28;20480;-90
2022/08/28 14:26:56;;;;;;;5.72;1.67;;;23.50;89.60;;;;;;4972589;28;20581;-89
2022/08/28 14:29:42;;;;;;;7.20;1.73;;;23.30;90.30;;;;;;4974403;28;20054;-83
2022/08/28 14:32:28;;;;;;;7.95;1.73;;;23.10;90.20;;;;;;4975961;28;20062;-85
2022/08/28 14:35:14;;;;;;;6.40;1.45;;;22.90;90.70;;;;;;4980261;28;20507;-86
2022/08/28 14:38:01;;;;;;;8.85;1.77;;;23.90;90.20;;;;;;4974688;28;20066;-88
2022/08/28 14:40:47;;;;;;;6.97;1.45;;;24.20;88.40;;;;;;4973035;28;20080;-84
2022/08/28 14:43:34;;;;;;;5.90;1.17;;;24.30;87.60;;;;;;4972492;28;20054;-82
2022/08/28 14:46:27;;;;;;;6.90;1.42;;;24.20;88.00;;;;;;4972657;28;20085;-89
2022/08/28 14:49:15;;;;;;;6.50;1.38;;;24.00;87.80;;;;;;4991474;28;20050;-82
2022/08/28 14:52:04;;;;;;;4.80;1.27;;;24.00;88.40;;;;;;4982409;28;20054;-82
2022/08/28 14:54:56;;;;;;;6.80;1.45;;;24.00;89.50;;;;;;4979847;28;20116;-79
2022/08/28 14:57:43;;;;;;;5.45;1.48;;;24.40;86.60;;;;;;4981105;28;20047;-80